KEKN

Elkins-Randolph Co-Jennings Randolph Field Airport

Elkins, West Virginia, USA
METAR KEKN 180651Z AUTO 00000KT 3SM BR OVC008 02/01 A3009 RMK AO2 CIG 007V012 SLP209 I1000 T00220011 TSNO
Observed Flight Rules
Dec-18 @ 06:51 UTC (2 hours ago) Instrument Flight Rules
Wind Visibility Clouds Conditions
Calm 3 miles
  • Overcast at 800' AGL
  • Mist
Temperatures Readings
Current 2°C / 36°F
Dewpoint 1°C / 34°F
Humidity 93%
Altimeter 30.09" Hg
Pressure 1020.9 hPa
Elevation 603
METAR KEKN 180651Z AUTO 00000KT 3SM BR OVC008 02/01 A3009 RMK AO2 CIG 007V012 SLP209 I1000 T00220011 TSNO
Observed Flight Rules
Dec-18 @ 06:51 UTC
(2 hours ago)
IFR
Wind Visibility
Calm 3 miles
Clouds
  • Overcast at 800' AGL
Conditions
  • Mist
Temperature Dewpoint
2°C / 36°F 1°C / 34°F
Humidity Altimeter Pressure
93% 30.09" Hg 1020.9 hPa